createdAt,value
2018-11-23T00:00:14.272Z,85.30
2018-11-23T00:02:43.325Z,85.40
2018-11-23T00:05:11.156Z,84.70
2018-11-23T00:07:39.332Z,85.00
2018-11-23T00:10:09.072Z,85.00
2018-11-23T00:12:37.097Z,84.90
2018-11-23T00:15:06.775Z,84.90
2018-11-23T00:17:34.455Z,85.30
2018-11-23T00:20:02.198Z,85.00
2018-11-23T00:22:29.963Z,84.60
2018-11-23T00:24:57.695Z,84.80
2018-11-23T00:27:25.494Z,84.70
2018-11-23T00:29:53.228Z,84.70
2018-11-23T00:32:20.936Z,84.20
2018-11-23T00:34:48.674Z,84.80
2018-11-23T00:37:16.427Z,84.50
2018-11-23T00:39:44.133Z,85.20
2018-11-23T00:42:12.583Z,84.60
2018-11-23T00:44:40.331Z,85.00
2018-11-23T00:47:08.077Z,85.70
2018-11-23T00:49:35.803Z,86.30
2018-11-23T00:52:03.599Z,86.10
2018-11-23T00:54:31.317Z,86.10
2018-11-23T00:56:59.161Z,85.70
2018-11-23T00:59:26.933Z,85.10
2018-11-23T01:02:00.576Z,85.40
2018-11-23T01:04:28.356Z,86.00
2018-11-23T01:06:56.077Z,85.70
2018-11-23T01:09:23.793Z,85.70
2018-11-23T01:11:51.538Z,86.00
2018-11-23T01:14:19.303Z,86.40
2018-11-23T01:16:47.043Z,86.40
2018-11-23T01:19:14.843Z,85.90
2018-11-23T01:21:42.575Z,87.00
2018-11-23T01:24:10.251Z,86.10
2018-11-23T01:26:38.041Z,86.00
2018-11-23T01:29:05.778Z,86.30
2018-11-23T01:31:33.489Z,86.30
2018-11-23T01:34:01.271Z,86.60
2018-11-23T01:36:29.015Z,86.70
2018-11-23T01:38:56.744Z,87.10
2018-11-23T01:41:24.487Z,87.10
2018-11-23T01:43:52.217Z,88.30
2018-11-23T01:46:20.275Z,87.00
2018-11-23T01:48:47.997Z,88.10
2018-11-23T01:51:15.717Z,88.10
2018-11-23T01:53:47.719Z,88.30
2018-11-23T01:56:15.457Z,88.60
2018-11-23T01:58:43.211Z,88.30
2018-11-23T02:01:10.969Z,88.30
2018-11-23T02:03:38.849Z,88.00
2018-11-23T02:06:06.643Z,87.40
2018-11-23T02:08:34.393Z,87.30
2018-11-23T02:11:02.103Z,87.50
2018-11-23T02:13:29.825Z,87.20
2018-11-23T02:15:57.561Z,86.70
2018-11-23T02:18:25.297Z,87.30
2018-11-23T02:20:53.001Z,86.60
2018-11-23T02:23:20.769Z,86.70
2018-11-23T02:25:48.448Z,86.80
2018-11-23T02:28:16.156Z,87.00
2018-11-23T02:30:44.080Z,86.90
2018-11-23T02:33:11.785Z,86.70
2018-11-23T02:35:39.471Z,86.30
2018-11-23T02:38:07.241Z,86.60
2018-11-23T02:40:34.924Z,86.30
2018-11-23T02:43:02.665Z,86.40
2018-11-23T02:45:30.437Z,87.00
2018-11-23T02:47:58.148Z,86.30
2018-11-23T02:50:25.881Z,86.40
2018-11-23T02:52:53.633Z,86.30
2018-11-23T02:55:21.564Z,87.20
2018-11-23T02:57:49.268Z,88.00
2018-11-23T03:00:18.535Z,88.00
2018-11-23T03:02:46.320Z,87.80
2018-11-23T03:05:16.161Z,87.50
2018-11-23T03:07:44.211Z,87.60
2018-11-23T03:10:13.117Z,87.30
2018-11-23T03:12:41.441Z,86.70
2018-11-23T03:15:10.984Z,87.30
2018-11-23T03:17:38.686Z,86.90
2018-11-23T03:20:08.784Z,87.30
2018-11-23T03:22:36.524Z,87.30
2018-11-23T03:25:04.924Z,87.20
2018-11-23T03:27:32.632Z,87.30
2018-11-23T03:30:00.372Z,87.10
2018-11-23T03:32:28.348Z,87.10
2018-11-23T03:34:56.053Z,87.10
2018-11-23T03:37:23.753Z,88.00
2018-11-23T03:39:51.491Z,88.70
2018-11-23T03:42:19.187Z,88.40
2018-11-23T03:44:46.898Z,87.90
2018-11-23T03:47:14.608Z,89.30
2018-11-23T03:49:42.870Z,89.10
2018-11-23T03:52:10.602Z,89.10
2018-11-23T03:54:38.345Z,89.40
2018-11-23T03:57:06.036Z,89.10
2018-11-23T03:59:33.765Z,89.40
2018-11-23T04:02:01.446Z,90.10
2018-11-23T04:04:29.178Z,90.00
2018-11-23T04:06:57.068Z,89.30
2018-11-23T04:09:24.767Z,89.30
2018-11-23T04:11:52.462Z,89.80
2018-11-23T04:14:20.202Z,88.70
2018-11-23T04:16:47.904Z,89.70
2018-11-23T04:19:15.634Z,89.80
2018-11-23T04:21:43.365Z,90.10
2018-11-23T04:24:11.062Z,90.00
2018-11-23T04:26:38.796Z,90.10
2018-11-23T04:29:06.596Z,90.10
2018-11-23T04:31:34.323Z,89.50
2018-11-23T04:34:02.058Z,89.50
2018-11-23T04:36:29.811Z,89.00
2018-11-23T04:38:57.566Z,89.00
2018-11-23T04:41:25.267Z,89.50
2018-11-23T04:43:53.006Z,89.50
2018-11-23T04:46:20.731Z,89.00
2018-11-23T04:48:48.448Z,89.00
2018-11-23T04:51:16.188Z,89.40
2018-11-23T04:53:43.927Z,89.40
2018-11-23T04:56:11.648Z,89.20
2018-11-23T04:58:39.349Z,89.10
2018-11-23T05:01:07.127Z,89.50
2018-11-23T05:03:34.869Z,90.00
2018-11-23T05:06:02.647Z,90.10
2018-11-23T05:08:30.472Z,90.00
2018-11-23T05:10:58.214Z,90.00
2018-11-23T05:13:25.921Z,89.80
2018-11-23T05:15:53.632Z,89.90
2018-11-23T05:18:21.390Z,90.10
2018-11-23T05:20:49.127Z,90.10
2018-11-23T05:23:16.834Z,90.20
2018-11-23T05:25:44.537Z,90.10
2018-11-23T05:28:12.254Z,90.10
2018-11-23T05:30:39.943Z,90.10
2018-11-23T05:33:07.645Z,89.90
2018-11-23T05:35:35.463Z,90.10
2018-11-23T05:38:03.285Z,90.00
2018-11-23T05:40:31.421Z,90.10
2018-11-23T05:43:04.283Z,89.60
2018-11-23T05:45:27.423Z,89.50
2018-11-23T05:47:55.619Z,89.70
2018-11-23T05:50:24.729Z,90.00
2018-11-23T05:52:52.532Z,90.00
2018-11-23T05:55:20.282Z,90.20
2018-11-23T05:57:48.172Z,90.20
2018-11-23T06:00:19.961Z,89.00
2018-11-23T06:02:48.093Z,89.30
2018-11-23T06:05:17.433Z,88.70
2018-11-23T06:07:45.557Z,89.30
2018-11-23T06:10:14.750Z,89.00
2018-11-23T06:12:43.242Z,89.00
2018-11-23T06:15:13.721Z,90.00
2018-11-23T06:17:41.796Z,90.40
2018-11-23T06:20:12.348Z,90.00
2018-11-23T06:22:40.156Z,90.00
2018-11-23T06:25:14.639Z,89.90
2018-11-23T06:27:42.809Z,89.70
2018-11-23T06:30:11.700Z,89.60
2018-11-23T06:32:50.918Z,89.80
2018-11-23T06:35:18.630Z,89.50
2018-11-23T06:37:47.229Z,90.00
2018-11-23T06:40:15.079Z,90.00
2018-11-23T06:42:43.735Z,90.10
2018-11-23T06:45:11.609Z,89.60
2018-11-23T06:47:39.594Z,89.70
2018-11-23T06:50:09.983Z,89.30
2018-11-23T06:52:38.145Z,89.00
2018-11-23T06:55:06.532Z,89.70
2018-11-23T06:57:34.401Z,89.40
2018-11-23T07:00:02.196Z,90.00
2018-11-23T07:02:29.930Z,90.10
2018-11-23T07:04:57.625Z,90.40
2018-11-23T07:07:25.522Z,90.10
2018-11-23T07:09:53.372Z,90.00
2018-11-23T07:12:23.073Z,90.00
2018-11-23T07:14:52.372Z,90.10
2018-11-23T07:17:20.394Z,90.00
2018-11-23T07:19:49.326Z,89.60
2018-11-23T07:22:17.676Z,89.50
2018-11-23T07:24:45.828Z,90.00
2018-11-23T07:27:13.925Z,89.00
2018-11-23T07:29:43.161Z,88.90
2018-11-23T07:32:10.888Z,89.00
2018-11-23T07:34:38.733Z,89.50
2018-11-23T07:37:06.531Z,90.00
2018-11-23T07:39:45.548Z,90.10
2018-11-23T07:42:18.488Z,89.30
2018-11-23T07:44:46.328Z,90.10
2018-11-23T07:47:14.075Z,90.10
2018-11-23T07:49:41.774Z,88.90
2018-11-23T07:52:09.571Z,89.50
2018-11-23T07:54:37.816Z,90.00
2018-11-23T07:57:05.832Z,89.10
2018-11-23T07:59:33.716Z,89.60
2018-11-23T08:02:01.434Z,90.10
2018-11-23T08:04:29.168Z,89.70
2018-11-23T08:06:56.944Z,89.80
2018-11-23T08:09:24.670Z,90.00
2018-11-23T08:11:52.886Z,89.40
2018-11-23T08:14:21.160Z,89.70
2018-11-23T08:16:48.922Z,89.80
2018-11-23T08:19:16.959Z,89.80
2018-11-23T08:21:44.686Z,90.00
2018-11-23T08:24:12.420Z,90.50
2018-11-23T08:26:43.850Z,90.10
2018-11-23T08:29:11.626Z,89.40
2018-11-23T08:31:39.500Z,89.50
2018-11-23T08:34:07.458Z,89.70
2018-11-23T08:36:35.307Z,88.90
2018-11-23T08:39:04.792Z,88.50
2018-11-23T08:41:31.886Z,89.70
2018-11-23T08:43:59.631Z,89.80
2018-11-23T08:46:27.356Z,88.30
2018-11-23T08:48:55.064Z,89.00
2018-11-23T08:51:22.838Z,87.90
2018-11-23T08:53:50.558Z,88.20
2018-11-23T08:56:18.261Z,88.50
2018-11-23T08:58:46.016Z,88.40
2018-11-23T09:01:13.731Z,88.80
2018-11-23T09:03:41.424Z,88.70
2018-11-23T09:06:09.186Z,89.30
2018-11-23T09:08:36.929Z,88.80
2018-11-23T09:11:05.151Z,88.70
2018-11-23T09:13:32.888Z,88.60
2018-11-23T09:16:00.694Z,88.60
2018-11-23T09:18:28.382Z,88.60
2018-11-23T09:20:56.122Z,88.40
2018-11-23T09:23:23.904Z,88.80
2018-11-23T09:25:51.857Z,88.90
2018-11-23T09:28:19.663Z,88.50
2018-11-23T09:30:47.366Z,87.60
2018-11-23T09:33:15.188Z,87.40
2018-11-23T09:35:42.948Z,87.70
2018-11-23T09:38:10.684Z,86.80
2018-11-23T09:40:38.412Z,86.80
2018-11-23T09:43:06.232Z,87.00
2018-11-23T09:45:34.345Z,87.90
2018-11-23T09:48:03.316Z,87.60
2018-11-23T09:50:31.088Z,87.70
2018-11-23T09:53:01.348Z,87.40
2018-11-23T09:55:30.042Z,87.10
2018-11-23T09:57:57.795Z,86.80
2018-11-23T10:00:27.030Z,87.50
2018-11-23T10:02:55.688Z,87.70
2018-11-23T10:05:24.088Z,87.20
2018-11-23T10:07:53.430Z,87.00
2018-11-23T10:10:21.830Z,86.80
2018-11-23T10:12:49.694Z,87.10
2018-11-23T10:15:18.060Z,87.20
2018-11-23T10:17:45.761Z,86.30
2018-11-23T10:20:16.121Z,87.00
2018-11-23T10:22:44.243Z,87.60
2018-11-23T10:25:13.330Z,87.40
2018-11-23T10:27:41.671Z,86.60
2018-11-23T10:30:11.908Z,87.30
2018-11-23T10:32:39.652Z,86.80
2018-11-23T10:35:08.142Z,87.30
2018-11-23T10:37:35.873Z,87.50
2018-11-23T10:40:05.094Z,87.30
2018-11-23T10:42:32.902Z,87.40
2018-11-23T10:45:00.626Z,87.10
2018-11-23T10:47:28.350Z,86.10
2018-11-23T10:49:56.068Z,87.10
2018-11-23T10:52:23.844Z,86.10
2018-11-23T10:54:51.484Z,86.70
2018-11-23T10:57:19.209Z,87.40
2018-11-23T10:59:46.881Z,86.90
2018-11-23T11:02:20.286Z,86.30
2018-11-23T11:04:56.578Z,86.80
2018-11-23T11:07:24.310Z,87.60
2018-11-23T11:09:51.992Z,87.40
2018-11-23T11:12:19.700Z,86.50
2018-11-23T11:14:47.438Z,86.40
2018-11-23T11:17:15.160Z,87.20
2018-11-23T11:19:42.861Z,86.70
2018-11-23T11:22:10.607Z,85.40
2018-11-23T11:24:38.311Z,86.20
2018-11-23T11:27:06.049Z,85.60
2018-11-23T11:29:33.784Z,85.50
2018-11-23T11:32:01.852Z,85.50
2018-11-23T11:34:29.551Z,85.30
2018-11-23T11:36:57.261Z,85.90
2018-11-23T11:39:25.009Z,86.60
2018-11-23T11:41:52.737Z,86.30
2018-11-23T11:44:20.430Z,86.30
2018-11-23T11:46:48.148Z,85.50
2018-11-23T11:49:15.835Z,85.70
2018-11-23T11:51:43.519Z,84.90
2018-11-23T11:54:11.208Z,86.10
2018-11-23T11:56:38.920Z,85.60
2018-11-23T11:59:06.655Z,86.10
2018-11-23T12:01:34.400Z,85.90
2018-11-23T12:04:02.148Z,85.70
2018-11-23T12:06:29.835Z,85.70
2018-11-23T12:08:57.527Z,85.10
2018-11-23T12:11:25.251Z,85.40
2018-11-23T12:13:53.129Z,85.50
2018-11-23T12:16:27.785Z,86.10
2018-11-23T12:18:55.509Z,86.70
2018-11-23T12:21:23.227Z,87.60
2018-11-23T12:23:50.911Z,86.00
2018-11-23T12:26:18.667Z,86.00
2018-11-23T12:28:46.433Z,85.60
2018-11-23T12:31:14.169Z,86.70
2018-11-23T12:33:41.964Z,86.20
2018-11-23T12:36:09.665Z,87.40
2018-11-23T12:38:40.175Z,85.80
2018-11-23T12:41:05.337Z,86.30
2018-11-23T12:43:33.015Z,85.70
2018-11-23T12:46:00.715Z,85.80
2018-11-23T12:48:28.444Z,86.30
2018-11-23T12:50:56.137Z,85.90
2018-11-23T12:53:23.839Z,85.80
2018-11-23T12:55:51.585Z,85.70
2018-11-23T12:58:19.282Z,86.10
2018-11-23T13:00:47.000Z,86.90
2018-11-23T13:03:14.778Z,87.00
2018-11-23T13:05:42.508Z,87.30
2018-11-23T13:08:10.189Z,87.90
2018-11-23T13:10:37.957Z,87.30
2018-11-23T13:13:05.666Z,87.10
2018-11-23T13:15:33.408Z,86.60
2018-11-23T13:18:01.448Z,87.10
2018-11-23T13:20:29.158Z,87.60
2018-11-23T13:22:56.940Z,87.30
2018-11-23T13:25:26.381Z,87.00
2018-11-23T13:27:54.356Z,86.90
2018-11-23T13:30:25.630Z,87.10
2018-11-23T13:32:53.372Z,87.40
2018-11-23T13:35:21.320Z,87.40
2018-11-23T13:37:49.276Z,87.70
2018-11-23T13:40:18.576Z,88.50
2018-11-23T13:42:46.906Z,88.50
2018-11-23T13:45:16.328Z,88.60
2018-11-23T13:47:43.989Z,88.80
2018-11-23T13:50:13.238Z,88.30
2018-11-23T13:52:41.780Z,87.90
2018-11-23T13:55:09.579Z,88.00
2018-11-23T13:57:37.715Z,88.10
2018-11-23T14:02:49.304Z,88.50
2018-11-23T14:05:19.518Z,89.40
2018-11-23T14:07:48.640Z,88.10
2018-11-23T14:10:18.553Z,88.30
2018-11-23T14:12:46.545Z,87.90
2018-11-23T14:15:15.884Z,87.80
2018-11-23T14:17:44.719Z,88.90
2018-11-23T14:20:13.608Z,89.20
2018-11-23T14:22:41.359Z,88.60
2018-11-23T14:25:11.120Z,88.80
2018-11-23T14:27:38.839Z,89.10
2018-11-23T14:30:09.822Z,89.00
2018-11-23T14:32:37.991Z,89.40
2018-11-23T14:35:07.072Z,89.30
2018-11-23T14:37:35.344Z,89.40
2018-11-23T14:40:03.143Z,89.60
2018-11-23T14:42:30.851Z,90.00
2018-11-23T14:44:58.556Z,90.00
2018-11-23T14:47:26.337Z,89.90
2018-11-23T14:49:54.083Z,89.90
2018-11-23T14:52:21.850Z,89.60
2018-11-23T14:54:49.603Z,89.20
2018-11-23T14:57:17.341Z,90.00
2018-11-23T14:59:45.075Z,90.10
2018-11-23T15:02:12.847Z,90.00
2018-11-23T15:04:40.590Z,89.30
2018-11-23T15:07:08.351Z,89.30
2018-11-23T15:09:36.100Z,89.80
2018-11-23T15:12:04.383Z,89.70
2018-11-23T15:14:32.072Z,89.70
2018-11-23T15:16:59.855Z,89.80
2018-11-23T15:19:27.537Z,89.80
2018-11-23T15:21:55.231Z,89.70
2018-11-23T15:24:23.098Z,89.60
2018-11-23T15:26:50.840Z,90.00
2018-11-23T15:29:18.643Z,89.60
2018-11-23T15:31:46.409Z,90.10
2018-11-23T15:34:14.179Z,90.20
2018-11-23T15:36:41.891Z,89.80
2018-11-23T15:39:11.040Z,89.80
2018-11-23T15:41:39.035Z,89.40
2018-11-23T15:44:06.846Z,89.50
2018-11-23T15:46:34.579Z,89.70
2018-11-23T15:49:02.335Z,89.80
2018-11-23T15:51:30.044Z,89.80
2018-11-23T15:53:57.897Z,89.70
2018-11-23T15:56:25.607Z,89.70
2018-11-23T15:58:53.309Z,89.00
2018-11-23T16:01:21.027Z,88.50
2018-11-23T16:03:48.858Z,89.10
2018-11-23T16:06:16.627Z,89.00
2018-11-23T16:08:45.269Z,89.20
2018-11-23T16:11:14.394Z,89.20
2018-11-23T16:13:42.777Z,88.90
2018-11-23T16:16:11.414Z,89.30
2018-11-23T16:18:39.175Z,89.50
2018-11-23T16:21:07.851Z,90.10
2018-11-23T16:23:35.621Z,90.00
2018-11-23T16:26:03.451Z,89.90
2018-11-23T16:28:31.183Z,90.00
2018-11-23T16:30:58.964Z,90.00
2018-11-23T16:33:26.699Z,90.00
2018-11-23T16:35:54.459Z,89.80
2018-11-23T16:38:23.278Z,89.60
2018-11-23T16:40:53.494Z,89.30
2018-11-23T16:43:21.238Z,90.00
2018-11-23T16:45:49.049Z,90.00
2018-11-23T16:48:17.547Z,90.20
2018-11-23T16:50:45.595Z,90.10
2018-11-23T16:53:13.376Z,90.00
2018-11-23T16:55:41.178Z,90.20
2018-11-23T16:58:10.736Z,90.10
2018-11-23T17:00:40.863Z,90.20
2018-11-23T17:03:10.115Z,90.20
2018-11-23T17:05:39.337Z,90.20
2018-11-23T17:08:08.253Z,90.20
2018-11-23T17:10:36.067Z,90.10
2018-11-23T17:13:03.897Z,90.10
2018-11-23T17:15:31.666Z,90.20
2018-11-23T17:17:59.679Z,90.70
2018-11-23T17:20:30.319Z,90.20
2018-11-23T17:22:59.323Z,90.30
2018-11-23T17:25:27.755Z,90.20
2018-11-23T17:27:56.799Z,90.40
2018-11-23T17:30:26.012Z,90.50
2018-11-23T17:32:54.035Z,90.50
2018-11-23T17:35:22.035Z,90.50
2018-11-23T17:37:49.815Z,90.40
2018-11-23T17:40:18.993Z,90.60
2018-11-23T17:42:46.731Z,90.50
2018-11-23T17:45:17.382Z,90.50
2018-11-23T17:47:45.207Z,90.40
2018-11-23T17:50:15.094Z,90.10
2018-11-23T17:52:43.127Z,90.10
2018-11-23T17:55:11.802Z,90.00
2018-11-23T17:57:40.202Z,90.00
2018-11-23T18:00:11.453Z,89.40
2018-11-23T18:02:39.199Z,90.10
2018-11-23T18:05:08.403Z,90.10
2018-11-23T18:07:36.249Z,90.00
2018-11-23T18:10:05.956Z,90.10
2018-11-23T18:12:35.865Z,90.10
2018-11-23T18:15:04.049Z,90.30
2018-11-23T18:17:31.806Z,90.10
2018-11-23T18:19:59.883Z,90.10
2018-11-23T18:22:27.643Z,90.00
2018-11-23T18:24:55.399Z,90.40
2018-11-23T18:27:23.197Z,90.30
2018-11-23T18:29:50.908Z,90.40
2018-11-23T18:32:18.655Z,90.40
2018-11-23T18:34:46.479Z,90.40
2018-11-23T18:37:14.291Z,90.00
2018-11-23T18:39:42.094Z,90.20
2018-11-23T18:42:09.883Z,90.40
2018-11-23T18:44:37.695Z,90.40
2018-11-23T18:47:05.514Z,90.30
2018-11-23T18:49:33.307Z,90.30
2018-11-23T18:52:01.161Z,90.20
2018-11-23T18:54:28.979Z,89.90
2018-11-23T18:56:56.891Z,89.50
2018-11-23T18:59:24.670Z,89.40
2018-11-23T19:01:52.438Z,89.90
2018-11-23T19:04:21.427Z,90.00
2018-11-23T19:06:49.183Z,90.00
2018-11-23T19:09:16.985Z,89.70
2018-11-23T19:11:44.735Z,89.90
2018-11-23T19:14:12.542Z,89.90
2018-11-23T19:16:40.320Z,89.90
2018-11-23T19:19:08.110Z,89.70
2018-11-23T19:21:35.879Z,89.80
2018-11-23T19:24:03.783Z,89.80
2018-11-23T19:26:31.605Z,89.90
2018-11-23T19:28:59.314Z,89.40
2018-11-23T19:31:27.555Z,89.70
2018-11-23T19:33:59.078Z,90.00
2018-11-23T19:36:23.147Z,90.00
2018-11-23T19:38:50.882Z,90.00
2018-11-23T19:41:18.713Z,90.20
2018-11-23T19:43:48.025Z,90.50
2018-11-23T19:46:15.767Z,90.20
2018-11-23T19:48:43.571Z,90.20
2018-11-23T19:51:11.385Z,90.50
2018-11-23T19:53:39.150Z,90.40
2018-11-23T19:56:06.991Z,90.40
2018-11-23T19:58:34.707Z,90.70
2018-11-23T20:01:02.467Z,90.60
2018-11-23T20:03:30.273Z,90.60
2018-11-23T20:05:58.030Z,90.50
2018-11-23T20:08:25.768Z,91.00
2018-11-23T20:10:53.573Z,90.60
2018-11-23T20:13:21.294Z,90.50
2018-11-23T20:15:49.116Z,90.30
2018-11-23T20:18:16.935Z,90.50
2018-11-23T20:20:44.799Z,90.20
2018-11-23T20:23:12.574Z,90.20
2018-11-23T20:25:40.343Z,90.40
2018-11-23T20:28:08.101Z,90.40
2018-11-23T20:30:42.197Z,90.50
2018-11-23T20:33:03.763Z,90.50
2018-11-23T20:35:31.514Z,90.70
2018-11-23T20:37:59.247Z,90.70
2018-11-23T20:40:27.047Z,90.70
2018-11-23T20:42:54.870Z,90.80
2018-11-23T20:45:22.623Z,90.80
2018-11-23T20:47:50.397Z,90.80
2018-11-23T20:50:18.380Z,90.60
2018-11-23T20:52:46.489Z,90.50
2018-11-23T20:55:16.391Z,90.50
2018-11-23T20:57:44.158Z,90.30
2018-11-23T21:00:13.999Z,90.60
2018-11-23T21:02:41.877Z,90.80
2018-11-23T21:05:10.851Z,90.80
2018-11-23T21:07:38.669Z,90.80
2018-11-23T21:10:37.658Z,90.70
2018-11-23T21:13:05.406Z,90.80
2018-11-23T21:15:33.187Z,90.80
2018-11-23T21:18:02.135Z,90.80
2018-11-23T21:20:29.895Z,90.80
2018-11-23T21:22:57.679Z,90.80
2018-11-23T21:25:25.494Z,90.80
2018-11-23T21:27:53.262Z,90.80
2018-11-23T21:30:22.125Z,91.10
2018-11-23T21:32:50.483Z,90.80
2018-11-23T21:35:18.458Z,90.90
2018-11-23T21:37:46.158Z,91.00
2018-11-23T21:40:15.036Z,91.10
2018-11-23T21:42:42.764Z,91.20
2018-11-23T21:45:13.526Z,91.30
2018-11-23T21:47:41.285Z,91.30
2018-11-23T21:50:11.967Z,91.10
2018-11-23T21:52:39.660Z,91.50
2018-11-23T21:55:10.959Z,91.30
2018-11-23T21:57:38.659Z,91.30
2018-11-23T22:00:09.158Z,91.30
2018-11-23T22:02:36.887Z,91.30
2018-11-23T22:05:05.633Z,91.50
2018-11-23T22:07:33.587Z,91.40
2018-11-23T22:10:01.532Z,91.30
2018-11-23T22:12:29.526Z,91.50
2018-11-23T22:14:57.441Z,91.60
2018-11-23T22:17:25.218Z,91.60
2018-11-23T22:19:52.930Z,91.50
2018-11-23T22:22:20.802Z,91.40
2018-11-23T22:24:48.576Z,91.40
2018-11-23T22:27:16.266Z,91.50
2018-11-23T22:29:44.002Z,91.40
2018-11-23T22:32:11.719Z,91.50
2018-11-23T22:34:39.443Z,91.50
2018-11-23T22:37:13.847Z,91.50
2018-11-23T22:39:41.546Z,91.60
2018-11-23T22:42:09.249Z,91.60
2018-11-23T22:44:36.966Z,91.70
2018-11-23T22:47:04.777Z,91.70
2018-11-23T22:49:32.480Z,92.10
2018-11-23T22:52:00.242Z,91.80
2018-11-23T22:54:28.010Z,91.80
2018-11-23T22:56:55.760Z,91.60
2018-11-23T22:59:23.518Z,91.70
2018-11-23T23:01:51.314Z,91.70
2018-11-23T23:04:18.982Z,91.70
2018-11-23T23:06:46.730Z,91.80
2018-11-23T23:09:14.433Z,92.20
2018-11-23T23:11:42.127Z,92.00
2018-11-23T23:14:09.917Z,92.00
2018-11-23T23:16:37.641Z,92.20
2018-11-23T23:19:05.596Z,91.90
2018-11-23T23:21:33.340Z,92.00
2018-11-23T23:24:01.038Z,92.00
2018-11-23T23:26:28.754Z,92.00
2018-11-23T23:28:56.534Z,91.80
2018-11-23T23:31:24.226Z,91.80
2018-11-23T23:33:51.974Z,91.60
2018-11-23T23:36:19.685Z,91.70
2018-11-23T23:38:47.386Z,91.70
2018-11-23T23:41:15.141Z,91.80
2018-11-23T23:43:42.913Z,91.90
2018-11-23T23:46:10.686Z,92.00
2018-11-23T23:48:38.415Z,91.80
2018-11-23T23:51:06.257Z,91.90
2018-11-23T23:53:33.974Z,92.10
2018-11-23T23:56:01.656Z,92.10
2018-11-23T23:58:29.380Z,92.10
